Schaijk, Netherlands
Current Conditions -  °F | °C
As of 3:25 PM on Monday 20 Oct 2014 (Local Time) from EHVK Reporting Station
Broken Clouds Broken Clouds  
Wind Chill: 63°   Ceiling: 3600
Heat Index: 63°   Visibility: 6mi
Dew Point: 52°   Wind: 16mph
Humidity: 68%   Direction: 250°WSW
Pressure: 29.97"   Gusts: NA
Location:  51.75°N, 5.63°E
Report Text: EHVK 201325Z AUTO 25014KT 9999 SCT031 BKN036 BKN044 17/11 Q1015 BLU 24014KT 9999 SCT30
Loading
Personal Weather Stations






























Interactive Weather Map
Tropical Storm Tracking
New forecast layout! Learn more

10-Day Weather Forecast

Advertisements
Track Severe Weather on mobile